中部国際空港の過去48時間の天気

中部国際空港 (Chubu Centrair International)

現在時刻: 4/25 23:44 JST (4/25 14:44 UTC) 以下の時間は現地時間です。

過去48時間のMETAR気象情報
時間 風向 風速(m/s) 視程 気温(℃) 湿度(%) 気圧(hPa) 天気現象
25 23:30 西北西 13 10km以上 14 77 1007
25 23:00 北西 12 10km以上 14 77 1007
25 22:30 北西 14 10km以上 14 82 1007
25 22:00 西北西 13 10km以上 15 77 1007
25 21:30 北西 13 10km以上 15 77 1007
25 21:00 北西 13 10km以上 15 77 1007
25 20:30 北西 10 10km以上 15 77 1007
25 20:00 北西 10 10km以上 15 77 1006
25 19:30 北北西 11 10km以上 15 77 1005
25 19:00 北西 13 10km以上 16 72 1004
25 18:30 北西 12 10km以上 16 77 1004
25 18:00 北西 11 10km以上 17 72 1004
25 17:30 北西 10 10km以上 17 72 1004
25 17:00 北西 9 10km以上 18 68 1003
25 16:30 北北西 9 10km以上 18 68 1003
25 16:00 北西 10 10km以上 18 73 1003
25 15:30 北西 10 10km以上 19 68 1002
25 15:00 北北西 8 10km以上 20 68 1002
25 14:30 北西 9 10km以上 19 68 1002
25 14:00 北西 8 10km以上 20 64 1002
25 13:30 西北西 9 10km以上 20 73 1002
25 13:00 北西 9 10km以上 20 68 1002
25 12:30 北西 10 10km以上 20 68 1002
25 12:00 北西 12 10km以上 19 73 1001
25 11:30 北西 9 10km以上 19 73 1001
25 11:00 北西 10 10km以上 19 73 1002
25 10:30 北西 11 10km以上 19 73 1001
25 10:00 北西 11 10km以上 19 73 1001
25 09:30 北西 8 10km以上 19 78 1001 弱いしゅう雨
25 09:00 北西 9 10km以上 19 83 1000 弱いしゅう雨
25 08:30 北西 9 10km以上 18 83 1000 周辺でしゅう雨
25 08:00 北北西 6 10km以上 18 94 999 周辺でしゅう雨
25 07:30 西 5 10km以上 18 100 999 周辺でしゅう雨
25 07:00 南南西 5 4,500m 18 100 999 弱いしゅう雨 もや
25 06:30 6 2,500m 19 94 998 しゅう雨 もや
25 06:00 7 3,000m 19 100 998 しゅう雨 もや
25 05:30 南南東 9 2,500m 18 100 998 しゅう雨 もや
25 05:00 南南東 10 3,000m 19 94 999 強いしゅう雨 もや
25 04:30 南南東 11 4,000m 19 94 999 しゅう雨 もや
25 04:00 南東 10 7,000m 19 94 1000 しゅう雨
25 03:30 南南東 10 8,000m 19 94 1001 弱いしゅう雨
25 03:00 南南東 11 8,000m 19 94 1001 弱いしゅう雨
25 02:30 南南東 11 7,000m 19 94 1002 しゅう雨
25 02:00 南東 9 8,000m 18 100 1002 しゅう雨
25 01:30 南東 9 9,000m 19 94 1003 弱いしゅう雨
25 01:00 南東 9 8,000m 18 100 1004 しゅう雨
25 00:30 南東 9 9,000m 18 100 1004 弱いしゅう雨
25 00:00 南東 8 10km以上 18 100 1005 弱いしゅう雨
24 23:30 南東 8 10km以上 18 100 1005 周辺でしゅう雨
24 23:00 南東 8 10km以上 18 100 1006
24 22:30 南東 8 10km以上 18 100 1006 周辺でしゅう雨
24 22:00 南東 8 10km以上 18 100 1007 弱いしゅう雨
24 21:30 南東 7 10km以上 18 100 1007 弱いしゅう雨
24 21:00 南東 8 10km以上 18 100 1007 弱いしゅう雨
24 20:30 南東 7 10km以上 18 94 1007 弱いしゅう雨
24 20:00 南東 7 8,000m 18 94 1008 弱いしゅう雨
24 19:30 南東 6 5,000m 18 94 1008 しゅう雨 もや
24 19:00 東南東 6 4,000m 18 94 1008 しゅう雨 もや
24 18:30 南東 7 4,500m 18 94 1008 しゅう雨 もや
24 18:00 南東 7 4,500m 18 94 1008 弱いしゅう雨 もや
24 17:30 南東 7 5,000m 18 94 1008 弱いしゅう雨 もや
24 17:00 南東 6 4,500m 18 94 1009 弱いしゅう雨 もや
24 16:30 東南東 7 5,000m 18 94 1009 弱いしゅう雨 もや
24 16:00 東南東 8 4,500m 18 94 1009 しゅう雨 もや
24 15:30 東南東 7 5,000m 18 94 1010 しゅう雨 もや
24 15:00 東南東 7 7,000m 18 94 1010 弱いしゅう雨
24 14:30 南東 6 7,000m 18 94 1010 弱いしゅう雨
24 14:00 南東 7 7,000m 18 94 1011 弱いしゅう雨
24 13:30 南東 6 5,000m 18 94 1012 弱いしゅう雨 もや
24 13:00 南東 6 6,000m 18 94 1012 弱いしゅう雨
24 12:30 南南東 6 10km以上 19 88 1012 弱い雨
24 12:00 南南東 7 10km以上 20 78 1013 弱い雨
24 11:30 南南東 8 10km以上 20 78 1013 弱い雨
24 11:00 南南東 8 10km以上 20 78 1013 周辺でしゅう雨
24 10:30 南南東 8 10km以上 20 78 1014
24 10:00 南南東 9 10km以上 20 78 1014
24 09:30 南南東 8 10km以上 20 78 1014
24 09:00 南南東 8 10km以上 20 73 1014
24 08:30 南南東 8 10km以上 19 83 1015
24 08:00 南東 7 10km以上 19 83 1015
24 07:30 南東 7 10km以上 19 83 1015 周辺でしゅう雨
24 07:00 南東 8 10km以上 18 88 1015 弱い雨
24 06:30 南東 7 10km以上 19 83 1015 弱い雨
24 06:00 南東 7 10km以上 19 83 1015
24 05:30 南東 6 10km以上 18 88 1015 弱い雨
24 05:00 東南東 6 10km以上 18 94 1015
24 04:30 東南東 7 10km以上 19 88 1015
24 04:00 東南東 6 10km以上 19 88 1015
24 03:30 東南東 6 10km以上 19 88 1015
24 03:00 東南東 6 10km以上 19 88 1015
24 02:30 東南東 6 10km以上 19 88 1016
24 02:00 東南東 5 10km以上 19 88 1016
24 01:30 東南東 5 10km以上 19 88 1016
24 01:00 南東 6 10km以上 19 88 1017
24 00:30 南東 7 10km以上 19 88 1017
24 00:00 南東 7 10km以上 19 88 1017
RJGG 251430Z 30025KT 9999 FEW020 14/10 Q1007 NOSIG
RJGG 251400Z 31024KT 9999 FEW020 14/10 Q1007 NOSIG
RJGG 251330Z 31028KT 9999 FEW020 14/11 Q1007 NOSIG
RJGG 251300Z 30026KT 9999 FEW020 SCT/// 15/11 Q1007 NOSIG
RJGG 251230Z 31025KT 9999 FEW020 BKN/// 15/11 Q1007 NOSIG
RJGG 251200Z 32025KT 9999 FEW020 BKN/// 15/11 Q1007 NOSIG
RJGG 251130Z 32020KT 9999 FEW020 BKN/// 15/11 Q1007 NOSIG
RJGG 251100Z 32020KT 9999 FEW020 SCT/// 15/11 Q1006 NOSIG
RJGG 251030Z 33021KT 9999 FEW020 SCT/// 15/11 Q1005 NOSIG
RJGG 251000Z 32025KT 9999 FEW020 BKN/// 16/11 Q1004 NOSIG
RJGG 250930Z 32023KT 9999 FEW020 BKN/// 16/12 Q1004 NOSIG
RJGG 250900Z 32021KT 9999 FEW020 BKN/// 17/12 Q1004 NOSIG
RJGG 250830Z 32019KT 9999 FEW020 BKN/// 17/12 Q1004 NOSIG
RJGG 250800Z 32018KT 9999 FEW020 BKN/// 18/12 Q1003 NOSIG
RJGG 250730Z 33017KT 9999 FEW020 BKN/// 18/12 Q1003 NOSIG
RJGG 250700Z 32019KT 9999 FEW020 BKN/// 18/13 Q1003 NOSIG
RJGG 250630Z 32019KT 9999 FEW020 BKN/// 19/13 Q1002 NOSIG
RJGG 250600Z 34015KT 9999 FEW020 BKN/// 20/14 Q1002 NOSIG
RJGG 250530Z 32017KT 9999 FEW020 SCT/// 19/13 Q1002 NOSIG
RJGG 250500Z 32015KT 9999 FEW020 20/13 Q1002 NOSIG
RJGG 250430Z 29018KT 9999 FEW020 20/15 Q1002 NOSIG
RJGG 250400Z 31017KT 9999 FEW020 20/14 Q1002 NOSIG
RJGG 250330Z 32019KT 9999 FEW020 SCT110 20/14 Q1002 NOSIG
RJGG 250300Z 31023KT 9999 FEW020 SCT140 19/14 Q1001 NOSIG
RJGG 250230Z 32017KT 9999 FEW015 SCT050 BKN140 19/14 Q1001 NOSIG
RJGG 250200Z 32020KT 9999 FEW015 SCT050 BKN140 19/14 Q1002 NOSIG
RJGG 250130Z 32022KT 9999 FEW015 SCT050 BKN140 19/14 Q1001 NOSIG
RJGG 250100Z 31021KT 9999 FEW015 SCT040 BKN140 19/14 Q1001 NOSIG
RJGG 250030Z 31016KT 9999 -SHRA FEW008 BKN030 19/15 Q1001 NOSIG
RJGG 250000Z 31018KT 9999 -SHRA FEW008 SCT025 BKN070 19/16 Q1000 NOSIG
RJGG 242330Z 31017KT 9999 VCSH FEW008 SCT030 BKN070 18/15 Q1000 NOSIG
RJGG 242300Z 33012KT 9999 VCSH FEW003 SCT020 BKN060 18/17 Q0999 NOSIG
RJGG 242230Z 28009KT 9999 VCSH FEW002 SCT010 BKN030 18/18 Q0999 NOSIG
RJGG 242200Z 21009KT 4500 -SHRA BR FEW002 SCT035 BKN060 18/18 Q0999 BECMG 28016KT
RJGG 242130Z 19011KT 2500 SHRA BR FEW005 BKN030 BKN050 19/18 Q0998 NOSIG
RJGG 242100Z 17014KT 3000 SHRA BR FEW003 SCT020 BKN025 19/19 Q0998 TEMPO FEW005 BKN008
RJGG 242030Z 16017KT 2500 SHRA BR FEW002 BKN010 BKN030 18/18 Q0998 TEMPO FEW005 BKN008
RJGG 242000Z 15020KT 3000 +SHRA BR FEW006 SCT009 BKN020 19/18 Q0999 NOSIG
RJGG 241930Z 15021KT 4000 SHRA BR FEW006 SCT015 BKN030 19/18 Q0999 NOSIG
RJGG 241900Z 14019KT 7000 SHRA FEW006 SCT030 BKN040 19/18 Q1000 NOSIG
RJGG 241830Z 15020KT 8000 -SHRA FEW006 SCT020 BKN025 19/18 Q1001 TEMPO 4000 SHRA BR
RJGG 241800Z 15021KT 8000 -SHRA FEW005 SCT020 BKN025 19/18 Q1001 TEMPO 4000 SHRA BR
RJGG 241730Z 15022KT 7000 SHRA FEW005 SCT020 BKN025 19/18 Q1002 TEMPO 4000 SHRA BR
RJGG 241700Z 14018KT 8000 SHRA FEW005 BKN020 BKN025 18/18 Q1002 TEMPO 4000 SHRA BR
RJGG 241630Z 14017KT 9000 -SHRA FEW015 SCT020 BKN025 19/18 Q1003 NOSIG
RJGG 241600Z 14017KT 8000 SHRA FEW015 BKN030 18/18 Q1004 NOSIG
RJGG 241530Z 14017KT 9000 -SHRA FEW020 BKN025 18/18 Q1004 NOSIG
RJGG 241500Z 14016KT 9999 -SHRA FEW020 BKN025 18/18 Q1005 NOSIG
RJGG 241430Z 14016KT 9999 VCSH FEW020 BKN030 18/18 Q1005 NOSIG
RJGG 241400Z 14016KT 9999 FEW020 SCT025 BKN035 18/18 Q1006 NOSIG
RJGG 241330Z 14016KT 9999 VCSH FEW020 SCT035 BKN100 18/18 Q1006 NOSIG
RJGG 241300Z 13015KT 9999 -SHRA FEW010 SCT030 BKN045 18/18 Q1007 NOSIG
RJGG 241230Z 13013KT 9999 -SHRA FEW010 SCT045 BKN120 18/18 Q1007 NOSIG
RJGG 241200Z 13015KT 9999 -SHRA FEW006 SCT045 BKN100 18/18 Q1007 NOSIG
RJGG 241130Z 13014KT 9999 -SHRA FEW006 SCT025 BKN080 18/17 Q1007 NOSIG
RJGG 241100Z 14014KT 8000 -SHRA FEW006 SCT035 BKN080 18/17 Q1008 NOSIG
RJGG 241030Z 13012KT 5000 SHRA BR FEW006 BKN020 18/17 Q1008 TEMPO 4000 SHRA BR
RJGG 241000Z 12012KT 4000 SHRA BR FEW010 SCT030 BKN040 18/17 Q1008 NOSIG
RJGG 240930Z 13014KT 4500 SHRA BR FEW010 SCT030 BKN040 18/17 Q1008 NOSIG
RJGG 240900Z 13014KT 4500 -SHRA BR FEW008 BKN030 BKN045 18/17 Q1008 NOSIG
RJGG 240830Z 13014KT 5000 -SHRA BR FEW008 SCT025 BKN035 18/17 Q1008 TEMPO 4000 -SHRA BR
RJGG 240800Z 13012KT 4500 -SHRA BR FEW008 BKN030 BKN040 18/17 Q1009 NOSIG
RJGG 240730Z 12014KT 5000 -SHRA BR FEW008 BKN035 BKN040 18/17 Q1009 NOSIG
RJGG 240700Z 11015KT 4500 SHRA BR FEW008 BKN030 BKN040 18/17 Q1009 BECMG 6000 -SHRA
RJGG 240630Z 12014KT 5000 SHRA BR FEW008 BKN030 BKN050 18/17 Q1010 NOSIG
RJGG 240600Z 12014KT 7000 -SHRA FEW008 SCT035 BKN060 18/17 Q1010 NOSIG
RJGG 240530Z 13012KT 7000 -SHRA FEW008 SCT035 BKN050 18/17 Q1010 NOSIG
RJGG 240500Z 13013KT 7000 -SHRA FEW008 SCT035 BKN060 18/17 Q1011 NOSIG
RJGG 240430Z 13011KT 5000 -SHRA BR FEW015 SCT035 BKN060 18/17 Q1012 NOSIG
RJGG 240400Z 14012KT 6000 -SHRA FEW015 BKN035 BKN060 18/17 Q1012 NOSIG
RJGG 240330Z 15012KT 9999 -RA FEW015 BKN050 BKN070 19/17 Q1012 NOSIG
RJGG 240300Z 15014KT 9999 -RA FEW015 BKN060 20/16 Q1013 NOSIG
RJGG 240230Z 15015KT 9999 -RA FEW015 BKN060 20/16 Q1013 NOSIG
RJGG 240200Z 15016KT 9999 VCSH FEW015 BKN050 BKN070 20/16 Q1013 NOSIG
RJGG 240130Z 15016KT 9999 FEW015 BKN060 BKN100 20/16 Q1014 NOSIG
RJGG 240100Z 15017KT 9999 FEW015 BKN050 BKN070 20/16 Q1014 NOSIG
RJGG 240030Z 15015KT 9999 FEW015 BKN060 20/16 Q1014 NOSIG
RJGG 240000Z 15016KT 9999 FEW015 BKN060 20/15 Q1014 NOSIG
RJGG 232330Z 15015KT 9999 FEW015 BKN060 19/16 Q1015 NOSIG
RJGG 232300Z 14013KT 9999 FEW015 BKN060 19/16 Q1015 NOSIG
RJGG 232230Z 13014KT 9999 VCSH FEW015 BKN060 19/16 Q1015 NOSIG
RJGG 232200Z 14015KT 9999 -RA FEW015 BKN060 18/16 Q1015 NOSIG
RJGG 232130Z 14013KT 9999 -RA FEW015 BKN060 19/16 Q1015 NOSIG
RJGG 232100Z 14013KT 9999 FEW015 BKN060 19/16 Q1015 NOSIG
RJGG 232030Z 13012KT 9999 -RA FEW015 BKN060 18/16 Q1015 NOSIG
RJGG 232000Z 12011KT 9999 FEW015 BKN060 18/17 Q1015 NOSIG
RJGG 231930Z 11013KT 9999 FEW025 BKN060 BKN070 19/17 Q1015 NOSIG
RJGG 231900Z 11012KT 9999 FEW025 BKN050 BKN070 19/17 Q1015 NOSIG
RJGG 231830Z 11011KT 9999 FEW025 SCT050 BKN060 19/17 Q1015 NOSIG
RJGG 231800Z 11011KT 9999 FEW025 BKN050 BKN070 19/17 Q1015 NOSIG
RJGG 231730Z 11011KT 9999 FEW025 BKN050 BKN070 19/17 Q1016 NOSIG
RJGG 231700Z 11009KT 9999 FEW025 BKN050 BKN070 19/17 Q1016 NOSIG
RJGG 231630Z 12010KT 9999 FEW025 BKN050 BKN070 19/17 Q1016 NOSIG
RJGG 231600Z 14011KT 9999 FEW025 BKN050 BKN070 19/17 Q1017 NOSIG
RJGG 231530Z 13013KT 9999 FEW025 BKN050 BKN070 19/17 Q1017 NOSIG
RJGG 231500Z 14014KT 9999 FEW025 BKN050 19/17 Q1017 NOSIG